createdAt,value
2023-02-17T00:01:29.257Z,13.15
2023-02-17T00:03:56.081Z,13.23
2023-02-17T00:06:27.050Z,13.52
2023-02-17T00:08:54.645Z,12.45
2023-02-17T00:11:21.727Z,12.90
2023-02-17T00:13:48.567Z,13.60
2023-02-17T00:16:20.755Z,12.55
2023-02-17T00:18:48.411Z,13.15
2023-02-17T00:21:17.669Z,12.57
2023-02-17T00:23:45.787Z,13.80
2023-02-17T00:26:12.621Z,13.32
2023-02-17T00:28:39.870Z,13.23
2023-02-17T00:31:18.680Z,13.43
2023-02-17T00:33:45.644Z,13.18
2023-02-17T00:36:15.352Z,12.10
2023-02-17T00:38:42.144Z,13.25
2023-02-17T00:41:08.943Z,13.25
2023-02-17T00:43:35.731Z,13.98
2023-02-17T00:46:04.352Z,13.38
2023-02-17T00:48:31.660Z,12.70
2023-02-17T00:50:58.406Z,13.00
2023-02-17T00:53:25.145Z,13.88
2023-02-17T00:55:51.868Z,13.20
2023-02-17T00:58:18.625Z,13.23
2023-02-17T01:00:45.500Z,13.15
2023-02-17T01:03:12.202Z,12.75
2023-02-17T01:05:43.423Z,13.55
2023-02-17T01:08:10.523Z,12.40
2023-02-17T01:10:42.419Z,13.05
2023-02-17T01:13:09.853Z,12.68
2023-02-17T01:15:41.736Z,12.40
2023-02-17T01:18:08.608Z,13.10
2023-02-17T01:20:37.447Z,12.55
2023-02-17T01:23:05.002Z,12.52
2023-02-17T01:25:31.826Z,12.25
2023-02-17T01:27:58.834Z,12.70
2023-02-17T01:30:25.850Z,12.25
2023-02-17T01:32:52.615Z,12.38
2023-02-17T01:35:19.936Z,12.57
2023-02-17T01:37:46.599Z,13.32
2023-02-17T01:40:14.899Z,12.52
2023-02-17T01:42:41.645Z,12.48
2023-02-17T01:45:32.315Z,12.52
2023-02-17T01:48:14.468Z,11.23
2023-02-17T01:50:46.112Z,11.73
2023-02-17T01:53:17.071Z,12.00
2023-02-17T01:55:44.705Z,11.30
2023-02-17T01:58:14.722Z,11.10
2023-02-17T02:00:42.292Z,12.10
2023-02-17T02:03:13.028Z,11.13
2023-02-17T02:05:41.356Z,11.90
2023-02-17T02:08:09.333Z,11.50
2023-02-17T02:10:36.034Z,11.65
2023-02-17T02:13:03.799Z,12.05
2023-02-17T02:16:06.068Z,10.98
2023-02-17T02:18:38.788Z,10.55
2023-02-17T02:21:37.604Z,11.18
2023-02-17T02:24:36.619Z,10.88
2023-02-17T02:27:18.328Z,10.93
2023-02-17T02:29:57.352Z,10.15
2023-02-17T02:33:02.633Z,11.38
2023-02-17T02:35:52.490Z,11.55
2023-02-17T02:38:41.169Z,10.85
2023-02-17T02:41:16.781Z,10.50
2023-02-17T02:43:43.929Z,10.60
2023-02-17T02:46:10.862Z,10.85
2023-02-17T02:48:38.475Z,10.45
2023-02-17T02:51:37.624Z,9.88
2023-02-17T02:54:07.074Z,10.38
2023-02-17T02:57:05.673Z,9.82
2023-02-17T02:59:41.194Z,10.18
2023-02-17T03:02:38.509Z,9.70
2023-02-17T03:05:25.389Z,9.85
2023-02-17T03:08:01.668Z,10.15
2023-02-17T03:10:28.640Z,9.85
2023-02-17T03:12:55.748Z,9.73
2023-02-17T03:15:34.681Z,9.98
2023-02-17T03:18:02.795Z,9.90
2023-02-17T03:20:36.356Z,8.93
2023-02-17T03:23:04.529Z,9.93
2023-02-17T03:25:31.358Z,9.13
2023-02-17T03:27:58.040Z,9.45
2023-02-17T03:30:24.897Z,9.48
2023-02-17T03:32:51.776Z,9.73
2023-02-17T03:35:18.599Z,10.55
2023-02-17T03:37:45.340Z,9.82
2023-02-17T03:40:12.088Z,9.43
2023-02-17T03:42:38.849Z,9.52
2023-02-17T03:45:06.041Z,9.35
2023-02-17T03:47:32.779Z,9.85
2023-02-17T03:49:59.589Z,10.07
2023-02-17T03:52:26.330Z,9.05
2023-02-17T03:54:53.248Z,9.45
2023-02-17T03:57:19.941Z,9.73
2023-02-17T03:59:46.624Z,9.02
2023-02-17T04:02:13.345Z,9.23
2023-02-17T04:04:40.094Z,8.75
2023-02-17T04:07:06.896Z,9.52
2023-02-17T04:09:33.627Z,9.07
2023-02-17T04:12:00.292Z,9.00
2023-02-17T04:14:26.981Z,9.20
2023-02-17T04:16:53.674Z,9.13
2023-02-17T04:19:21.279Z,9.35
2023-02-17T04:21:48.180Z,9.10
2023-02-17T04:24:14.884Z,9.43
2023-02-17T04:26:41.615Z,8.70
2023-02-17T04:29:08.336Z,9.05
2023-02-17T04:31:35.208Z,8.77
2023-02-17T04:34:01.977Z,8.80
2023-02-17T04:36:28.714Z,8.65
2023-02-17T04:38:55.397Z,8.73
2023-02-17T04:41:22.157Z,8.80
2023-02-17T04:43:49.076Z,7.70
2023-02-17T04:46:15.912Z,8.70
2023-02-17T04:48:42.693Z,8.77
2023-02-17T04:51:09.517Z,8.13
2023-02-17T04:53:36.214Z,8.80
2023-02-17T04:56:03.024Z,8.85
2023-02-17T04:58:29.729Z,8.80
2023-02-17T05:00:59.062Z,8.02
2023-02-17T05:03:25.828Z,8.02
2023-02-17T05:05:52.524Z,8.30
2023-02-17T05:08:19.259Z,8.35
2023-02-17T05:10:46.014Z,8.32
2023-02-17T05:13:12.727Z,7.90
2023-02-17T05:15:39.544Z,7.55
2023-02-17T05:18:06.374Z,7.72
2023-02-17T05:20:33.318Z,7.70
2023-02-17T05:23:00.512Z,7.55
2023-02-17T05:25:27.718Z,7.53
2023-02-17T05:27:54.515Z,7.72
2023-02-17T05:30:21.621Z,8.20
2023-02-17T05:32:48.431Z,8.70
2023-02-17T05:35:15.315Z,8.30
2023-02-17T05:37:42.061Z,7.55
2023-02-17T05:40:09.307Z,7.68
2023-02-17T05:42:36.054Z,7.20
2023-02-17T05:45:02.935Z,7.10
2023-02-17T05:47:29.729Z,8.00
2023-02-17T05:49:56.389Z,7.25
2023-02-17T05:52:23.084Z,7.05
2023-02-17T05:54:49.977Z,7.50
2023-02-17T05:57:16.865Z,7.25
2023-02-17T05:59:43.545Z,7.70
2023-02-17T06:02:10.275Z,6.53
2023-02-17T06:04:37.207Z,7.15
2023-02-17T06:07:04.004Z,6.97
2023-02-17T06:09:30.847Z,7.65
2023-02-17T06:11:57.529Z,7.60
2023-02-17T06:14:24.303Z,7.05
2023-02-17T06:16:51.114Z,7.30
2023-02-17T06:19:17.842Z,7.18
2023-02-17T06:21:44.695Z,7.50
2023-02-17T06:24:11.428Z,7.38
2023-02-17T06:26:38.214Z,7.38
2023-02-17T06:29:06.204Z,7.75
2023-02-17T06:31:33.181Z,7.45
2023-02-17T06:33:59.963Z,7.20
2023-02-17T06:36:26.638Z,7.43
2023-02-17T06:38:53.394Z,7.30
2023-02-17T06:41:20.160Z,7.55
2023-02-17T06:43:46.869Z,6.90
2023-02-17T06:46:13.606Z,7.03
2023-02-17T06:48:40.316Z,7.72
2023-02-17T06:51:07.078Z,7.00
2023-02-17T06:53:33.793Z,7.40
2023-02-17T06:56:00.496Z,7.53
2023-02-17T06:58:27.183Z,7.55
2023-02-17T07:00:53.920Z,7.57
2023-02-17T07:03:20.645Z,7.38
2023-02-17T07:05:47.462Z,7.10
2023-02-17T07:08:14.244Z,7.43
2023-02-17T07:10:40.981Z,7.25
2023-02-17T07:13:07.730Z,7.30
2023-02-17T07:15:34.792Z,7.10
2023-02-17T07:18:02.447Z,6.90
2023-02-17T07:20:29.254Z,7.18
2023-02-17T07:22:55.977Z,7.05
2023-02-17T07:25:22.662Z,6.95
2023-02-17T07:27:49.539Z,7.72
2023-02-17T07:30:16.422Z,7.38
2023-02-17T07:32:43.375Z,7.57
2023-02-17T07:35:10.416Z,6.57
2023-02-17T07:37:37.204Z,7.07
2023-02-17T07:40:04.380Z,6.72
2023-02-17T07:42:31.319Z,6.93
2023-02-17T07:44:58.073Z,6.05
2023-02-17T07:47:24.866Z,6.60
2023-02-17T07:49:51.588Z,6.28
2023-02-17T07:52:18.674Z,5.88
2023-02-17T07:54:45.565Z,5.10
2023-02-17T07:57:12.325Z,5.35
2023-02-17T07:59:39.078Z,4.18
2023-02-17T08:02:05.851Z,4.85
2023-02-17T08:04:33.081Z,4.45
2023-02-17T08:06:59.889Z,4.40
2023-02-17T08:09:45.129Z,4.43
2023-02-17T08:12:35.609Z,5.05
2023-02-17T08:15:02.774Z,4.80
2023-02-17T08:17:30.228Z,4.47
2023-02-17T08:19:56.999Z,5.47
2023-02-17T08:22:23.733Z,5.60
2023-02-17T08:24:50.822Z,6.45
2023-02-17T08:27:19.005Z,6.68
2023-02-17T08:29:45.888Z,6.40
2023-02-17T08:32:14.191Z,6.75
2023-02-17T08:34:40.996Z,6.47
2023-02-17T08:37:08.609Z,5.72
2023-02-17T08:39:36.446Z,5.90
2023-02-17T08:42:04.651Z,6.18
2023-02-17T08:44:35.770Z,6.05
2023-02-17T08:47:02.499Z,4.95
2023-02-17T08:49:32.328Z,4.55
2023-02-17T08:52:00.006Z,4.47
2023-02-17T08:54:27.198Z,3.95
2023-02-17T08:56:53.949Z,4.32
2023-02-17T08:59:21.003Z,4.40
2023-02-17T09:01:47.853Z,4.30
2023-02-17T09:04:15.625Z,4.70
2023-02-17T09:06:48.433Z,4.18
2023-02-17T09:09:18.558Z,4.20
2023-02-17T09:11:45.898Z,4.00
2023-02-17T09:14:12.737Z,4.15
2023-02-17T09:16:43.597Z,4.03
2023-02-17T09:19:10.381Z,4.00
2023-02-17T09:21:37.266Z,3.97
2023-02-17T09:24:04.409Z,4.10
2023-02-17T09:26:31.119Z,3.88
2023-02-17T09:28:58.169Z,3.47
2023-02-17T09:31:26.888Z,3.85
2023-02-17T09:33:54.532Z,3.58
2023-02-17T09:36:33.844Z,3.60
2023-02-17T09:39:01.844Z,3.75
2023-02-17T09:41:41.856Z,3.60
2023-02-17T09:44:16.878Z,3.65
2023-02-17T09:47:01.277Z,3.78
2023-02-17T09:49:37.723Z,3.90
2023-02-17T09:52:14.355Z,3.88
2023-02-17T09:55:04.205Z,4.22
2023-02-17T09:57:43.736Z,4.15
2023-02-17T10:00:19.502Z,4.25
2023-02-17T10:02:53.047Z,3.63
2023-02-17T10:05:26.092Z,6.03
2023-02-17T10:08:23.989Z,3.63
2023-02-17T10:11:05.153Z,3.75
2023-02-17T10:13:36.679Z,4.13
2023-02-17T10:16:14.670Z,4.35
2023-02-17T10:18:51.940Z,3.60
2023-02-17T10:21:34.065Z,3.97
2023-02-17T10:24:00.908Z,3.78
2023-02-17T10:27:01.713Z,3.80
2023-02-17T10:29:41.788Z,3.97
2023-02-17T10:32:25.305Z,3.88
2023-02-17T10:34:58.102Z,4.00
2023-02-17T10:37:31.077Z,4.25
2023-02-17T10:39:58.685Z,3.45
2023-02-17T10:42:39.166Z,3.50
2023-02-17T10:45:36.645Z,3.42
2023-02-17T10:48:08.725Z,3.60
2023-02-17T10:50:37.929Z,3.00
2023-02-17T10:53:20.630Z,3.10
2023-02-17T10:56:11.879Z,3.00
2023-02-17T10:58:52.569Z,2.50
2023-02-17T11:01:20.174Z,2.92
2023-02-17T11:03:46.997Z,2.85
2023-02-17T11:06:22.516Z,3.05
2023-02-17T11:08:54.282Z,3.00
2023-02-17T11:11:32.258Z,2.83
2023-02-17T11:14:08.285Z,3.00
2023-02-17T11:16:47.310Z,3.03
2023-02-17T11:19:30.455Z,3.10
2023-02-17T11:21:59.215Z,3.13
2023-02-17T11:24:27.063Z,2.88
2023-02-17T11:27:04.328Z,3.20
2023-02-17T11:29:33.172Z,2.90
2023-02-17T11:32:07.388Z,3.33
2023-02-17T11:34:36.597Z,3.30
2023-02-17T11:37:15.866Z,3.28
2023-02-17T11:39:45.505Z,3.75
2023-02-17T11:42:26.555Z,3.55
2023-02-17T11:44:56.618Z,3.30
2023-02-17T11:47:29.187Z,3.45
2023-02-17T11:50:07.699Z,3.42
2023-02-17T11:52:49.467Z,4.07
2023-02-17T11:55:34.545Z,3.90
2023-02-17T11:58:14.056Z,4.00
2023-02-17T12:01:03.950Z,3.88
2023-02-17T12:03:47.354Z,3.75
2023-02-17T12:06:22.696Z,3.80
2023-02-17T12:08:55.197Z,4.00
2023-02-17T12:11:35.435Z,3.72
2023-02-17T12:14:25.364Z,4.57
2023-02-17T12:17:01.648Z,4.10
2023-02-17T12:19:51.768Z,4.03
2023-02-17T12:22:33.030Z,3.75
2023-02-17T12:25:26.801Z,4.40
2023-02-17T12:28:13.819Z,4.95
2023-02-17T12:31:09.200Z,6.55
2023-02-17T12:33:58.636Z,6.03
2023-02-17T12:36:40.247Z,4.38
2023-02-17T12:39:24.859Z,4.78
2023-02-17T12:41:59.382Z,5.18
2023-02-17T12:47:03.793Z,4.72
2023-02-17T12:49:37.722Z,4.28
2023-02-17T12:52:32.766Z,4.72
2023-02-17T12:55:13.045Z,4.60
2023-02-17T12:57:58.409Z,4.40
2023-02-17T13:00:40.871Z,4.25
2023-02-17T13:03:08.204Z,4.20
2023-02-17T13:05:40.715Z,4.40
2023-02-17T13:08:22.013Z,4.22
2023-02-17T13:11:04.657Z,4.70
2023-02-17T13:13:33.124Z,5.20
2023-02-17T13:16:11.586Z,5.45
2023-02-17T13:18:46.554Z,4.28
2023-02-17T13:21:24.763Z,4.55
2023-02-17T13:24:26.699Z,5.43
2023-02-17T13:26:53.406Z,5.10
2023-02-17T13:29:32.103Z,4.40
2023-02-17T13:32:04.674Z,4.25
2023-02-17T13:34:37.768Z,4.10
2023-02-17T13:37:19.196Z,4.45
2023-02-17T13:39:46.560Z,4.43
2023-02-17T13:42:33.315Z,4.28
2023-02-17T13:45:00.806Z,4.28
2023-02-17T13:47:47.782Z,4.15
2023-02-17T13:50:34.283Z,4.80
2023-02-17T13:53:02.830Z,4.57
2023-02-17T13:55:29.866Z,5.43
2023-02-17T13:57:58.835Z,5.53
2023-02-17T14:00:26.988Z,4.30
2023-02-17T14:03:25.123Z,4.88
2023-02-17T14:06:02.968Z,5.10
2023-02-17T14:08:40.984Z,6.75
2023-02-17T14:11:13.684Z,8.98
2023-02-17T14:13:45.436Z,5.90
2023-02-17T14:16:30.682Z,5.13
2023-02-17T14:19:17.960Z,5.32
2023-02-17T14:21:55.298Z,4.93
2023-02-17T14:24:33.158Z,6.50
2023-02-17T14:27:08.172Z,4.50
2023-02-17T14:29:43.452Z,5.05
2023-02-17T14:32:30.409Z,4.40
2023-02-17T14:35:26.632Z,5.43
2023-02-17T14:37:53.438Z,4.68
2023-02-17T14:40:24.055Z,4.97
2023-02-17T14:42:51.449Z,4.30
2023-02-17T14:45:19.066Z,4.32
2023-02-17T14:47:46.810Z,4.60
2023-02-17T14:50:14.901Z,4.07
2023-02-17T14:52:47.312Z,3.47
2023-02-17T14:55:34.366Z,4.20
2023-02-17T14:58:01.656Z,4.03
2023-02-17T15:00:28.608Z,4.13
2023-02-17T15:02:55.523Z,4.50
2023-02-17T15:05:22.496Z,3.55
2023-02-17T15:07:49.710Z,3.88
2023-02-17T15:10:27.257Z,4.35
2023-02-17T15:12:54.688Z,4.30
2023-02-17T15:15:21.764Z,4.28
2023-02-17T15:17:48.906Z,4.20
2023-02-17T15:20:16.682Z,4.10
2023-02-17T15:22:44.419Z,4.55
2023-02-17T15:25:19.504Z,4.20
2023-02-17T15:27:46.715Z,3.80
2023-02-17T15:30:16.631Z,4.40
2023-02-17T15:32:43.926Z,7.47
2023-02-17T15:35:21.209Z,4.28
2023-02-17T15:37:48.502Z,4.18
2023-02-17T15:40:17.873Z,4.35
2023-02-17T15:42:46.170Z,5.30
2023-02-17T15:45:15.760Z,4.00
2023-02-17T15:47:42.574Z,3.60
2023-02-17T15:50:22.847Z,6.72
2023-02-17T15:52:50.838Z,4.72
2023-02-17T15:55:23.548Z,3.55
2023-02-17T15:57:54.594Z,3.47
2023-02-17T16:00:35.735Z,3.08
2023-02-17T16:03:02.948Z,3.05
2023-02-17T16:05:30.853Z,2.45
2023-02-17T16:07:57.645Z,2.60
2023-02-17T16:10:29.489Z,2.42
2023-02-17T16:12:58.327Z,3.47
2023-02-17T16:15:26.116Z,3.20
2023-02-17T16:17:52.988Z,4.60
2023-02-17T16:20:29.629Z,4.00
2023-02-17T16:22:57.107Z,4.72
2023-02-17T16:25:24.024Z,3.10
2023-02-17T16:27:52.549Z,2.72
2023-02-17T16:30:30.065Z,2.50
2023-02-17T16:32:57.185Z,2.50
2023-02-17T16:35:27.206Z,2.63
2023-02-17T16:38:07.692Z,3.85
2023-02-17T16:40:36.988Z,2.53
2023-02-17T16:43:04.048Z,2.90
2023-02-17T16:45:32.675Z,6.10
2023-02-17T16:48:01.251Z,7.30
2023-02-17T16:50:35.211Z,6.00
2023-02-17T16:53:06.036Z,4.30
2023-02-17T16:55:35.364Z,4.63
2023-02-17T16:58:03.537Z,5.47
2023-02-17T17:00:32.804Z,6.15
2023-02-17T17:02:59.965Z,4.20
2023-02-17T17:05:28.866Z,3.58
2023-02-17T17:08:23.589Z,4.28
2023-02-17T17:10:50.381Z,5.90
2023-02-17T17:13:17.958Z,5.53
2023-02-17T17:15:45.930Z,7.63
2023-02-17T17:18:21.164Z,8.82
2023-02-17T17:20:48.383Z,7.97
2023-02-17T17:23:15.828Z,6.00
2023-02-17T17:25:48.438Z,5.28
2023-02-17T17:28:17.371Z,4.55
2023-02-17T17:30:44.168Z,3.95
2023-02-17T17:33:10.914Z,3.88
2023-02-17T17:35:38.157Z,3.50
2023-02-17T17:38:05.325Z,4.47
2023-02-17T17:40:48.639Z,3.55
2023-02-17T17:43:20.388Z,3.70
2023-02-17T17:45:51.001Z,4.30
2023-02-17T17:48:18.401Z,3.25
2023-02-17T17:50:45.419Z,3.60
2023-02-17T17:53:12.199Z,2.95
2023-02-17T17:55:38.925Z,3.40
2023-02-17T17:58:05.723Z,3.80
2023-02-17T18:00:32.483Z,3.13
2023-02-17T18:02:59.182Z,3.72
2023-02-17T18:05:25.950Z,3.10
2023-02-17T18:07:53.051Z,2.53
2023-02-17T18:10:20.022Z,3.80
2023-02-17T18:12:48.028Z,3.72
2023-02-17T18:15:16.934Z,4.30
2023-02-17T18:17:46.311Z,5.35
2023-02-17T18:20:13.237Z,3.03
2023-02-17T18:22:40.284Z,2.85
2023-02-17T18:25:07.785Z,2.92
2023-02-17T18:27:52.711Z,2.80
2023-02-17T18:30:21.369Z,3.40
2023-02-17T18:32:48.706Z,3.00
2023-02-17T18:35:16.146Z,2.88
2023-02-17T18:37:43.438Z,3.05
2023-02-17T18:40:14.935Z,4.78
2023-02-17T18:42:44.502Z,3.22
2023-02-17T18:45:11.503Z,3.47
2023-02-17T18:47:38.299Z,2.90
2023-02-17T18:50:06.783Z,3.55
2023-02-17T18:52:33.722Z,4.00
2023-02-17T18:55:00.411Z,4.32
2023-02-17T18:57:27.201Z,3.20
2023-02-17T18:59:53.933Z,4.40
2023-02-17T19:02:21.978Z,5.00
2023-02-17T19:04:51.809Z,4.20
2023-02-17T19:07:18.508Z,5.82
2023-02-17T19:09:45.224Z,4.53
2023-02-17T19:12:14.689Z,3.60
2023-02-17T19:14:42.078Z,3.67
2023-02-17T19:17:10.591Z,5.88
2023-02-17T19:19:38.531Z,4.10
2023-02-17T19:22:08.184Z,5.55
2023-02-17T19:24:36.221Z,3.55
2023-02-17T19:27:03.539Z,5.20
2023-02-17T19:29:30.369Z,5.80
2023-02-17T19:31:58.328Z,5.18
2023-02-17T19:34:25.466Z,3.83
2023-02-17T19:36:52.325Z,12.63
2023-02-17T19:39:19.437Z,15.75
2023-02-17T19:41:46.115Z,7.38
2023-02-17T19:44:13.349Z,5.47
2023-02-17T19:46:40.718Z,3.42
2023-02-17T19:49:07.447Z,5.18
2023-02-17T19:51:34.829Z,4.10
2023-02-17T19:54:02.158Z,6.32
2023-02-17T19:56:31.717Z,4.70
2023-02-17T19:58:58.481Z,4.40
2023-02-17T20:01:27.690Z,4.63
2023-02-17T20:03:55.999Z,4.47
2023-02-17T20:06:28.135Z,3.92
2023-02-17T20:09:00.159Z,4.15
2023-02-17T20:11:28.389Z,4.35
2023-02-17T20:13:57.701Z,4.55
2023-02-17T20:16:24.668Z,5.25
2023-02-17T20:18:51.852Z,4.57
2023-02-17T20:21:24.024Z,4.20
2023-02-17T20:23:51.838Z,4.45
2023-02-17T20:26:22.043Z,4.65
2023-02-17T20:29:38.953Z,4.25
2023-02-17T20:32:06.818Z,4.93
2023-02-17T20:34:41.514Z,5.10
2023-02-17T20:37:09.168Z,5.40
2023-02-17T20:39:38.438Z,4.78
2023-02-17T20:42:05.617Z,4.20
2023-02-17T20:44:32.388Z,3.78
2023-02-17T20:46:59.164Z,4.00
2023-02-17T20:49:26.280Z,4.20
2023-02-17T20:51:53.604Z,4.78
2023-02-17T20:54:20.530Z,4.43
2023-02-17T20:56:47.674Z,4.28
2023-02-17T20:59:14.522Z,5.13
2023-02-17T21:01:42.079Z,5.30
2023-02-17T21:04:09.609Z,6.85
2023-02-17T21:06:41.096Z,6.35
2023-02-17T21:09:14.955Z,5.90
2023-02-17T21:11:41.799Z,4.90
2023-02-17T21:14:08.858Z,4.10
2023-02-17T21:16:35.985Z,4.97
2023-02-17T21:19:03.416Z,4.95
2023-02-17T21:21:31.283Z,4.90
2023-02-17T21:23:58.814Z,4.32
2023-02-17T21:26:25.564Z,4.90
2023-02-17T21:28:52.351Z,5.40
2023-02-17T21:31:19.546Z,5.05
2023-02-17T21:33:46.297Z,4.90
2023-02-17T21:36:15.957Z,4.68
2023-02-17T21:38:42.750Z,4.55
2023-02-17T21:41:16.241Z,4.20
2023-02-17T21:44:02.493Z,4.20
2023-02-17T21:46:30.294Z,4.00
2023-02-17T21:48:58.620Z,3.45
2023-02-17T21:51:26.127Z,4.35
2023-02-17T21:53:53.365Z,5.97
2023-02-17T21:56:22.321Z,4.25
2023-02-17T21:58:51.307Z,4.38
2023-02-17T22:01:19.357Z,4.90
2023-02-17T22:03:46.297Z,4.05
2023-02-17T22:06:17.018Z,4.25
2023-02-17T22:08:43.819Z,3.63
2023-02-17T22:11:14.977Z,3.90
2023-02-17T22:13:41.760Z,4.20
2023-02-17T22:16:08.868Z,3.50
2023-02-17T22:18:35.777Z,3.08
2023-02-17T22:21:02.704Z,3.20
2023-02-17T22:23:29.433Z,3.38
2023-02-17T22:25:56.138Z,3.35
2023-02-17T22:28:23.000Z,3.42
2023-02-17T22:30:53.207Z,3.05
2023-02-17T22:33:19.941Z,3.00
2023-02-17T22:35:46.629Z,3.30
2023-02-17T22:38:13.319Z,3.38
2023-02-17T22:40:41.352Z,3.38
2023-02-17T22:43:08.013Z,3.35
2023-02-17T22:45:34.733Z,3.92
2023-02-17T22:48:01.651Z,3.65
2023-02-17T22:50:28.376Z,2.97
2023-02-17T22:52:55.040Z,2.92
2023-02-17T22:55:21.786Z,3.00
2023-02-17T22:57:48.477Z,2.78
2023-02-17T23:00:16.015Z,2.50
2023-02-17T23:02:42.668Z,2.55
2023-02-17T23:05:09.641Z,2.40
2023-02-17T23:07:36.353Z,2.42
2023-02-17T23:10:04.383Z,2.83
2023-02-17T23:12:31.175Z,2.83
2023-02-17T23:14:58.112Z,2.42
2023-02-17T23:17:24.794Z,2.40
2023-02-17T23:19:51.445Z,2.50
2023-02-17T23:22:19.030Z,2.33
2023-02-17T23:24:47.409Z,2.15
2023-02-17T23:27:14.815Z,2.10
2023-02-17T23:29:42.529Z,2.35
2023-02-17T23:32:09.647Z,2.20
2023-02-17T23:34:36.378Z,1.90
2023-02-17T23:37:03.110Z,1.88
2023-02-17T23:39:29.801Z,1.95
2023-02-17T23:41:56.525Z,2.00
2023-02-17T23:44:23.162Z,1.90
2023-02-17T23:46:50.066Z,2.10
2023-02-17T23:49:17.584Z,1.70
2023-02-17T23:51:45.180Z,1.65
2023-02-17T23:54:12.115Z,1.92
2023-02-17T23:56:39.103Z,1.65
2023-02-17T23:59:06.049Z,1.70
